Forbes Field
KFOE : now visible

Airfield :











YOU CAN JOIN US ON...

 
LOGIN :

Register | Disclaimer

   EN    FR    IT 

 









Legend :    VFR   Marginal VFR   IFR   Intensive IFR   Very Intensive IFR
Visi :
Ceiling :
>= 8 km
>= 3000ft
5 to 8 km
1000 to 3000 ft
1500m to 5 km
500 to 1000 ft
800 to 1500m
200 to 500 ft
< 800m
< 200 ft
Symbols :   Thunderstorms  Fog  Heavy snow  Heavy precipitations  Wind > 20 kt







- Airport Elevation : 1078 ft
- IATA code : FOE


KFOE - Forbes Field

CURRENT METAR :
  • 191453Z 19016G25KT 10SM CLR 31/22 A2983 RMK AO2 SLP085 T03060217 52004

EXPIRED METARs :
  • 191353Z 19016G24KT 10SM CLR 29/21 A2982 RMK AO2 PK WND 17027/1332 SLP083 T02890211
  • 191253Z 18012KT 10SM CLR 28/21 A2982 RMK AO2 SLP083 T02780211

TAF KFOE
Valid from the 19 at 12:00 until the 20 at 12:00 UTC


191138Z 1912/2012 19012G20KT P6SM SKC WS015/21044KT
FM191300 19015G26KT P6SM SKC
FM200200 18012G19KT P6SM SKC
FM200400 18011KT P6SM SKC WS015/20043KT
KZKC FIR / North America



MET'MAP, your aeronautical weather chart ! - Copyright ORBIFLY December 2007 - Disclaimer

ORBIFLY MET'MAP TEAM :

Programming & Development : Alexandra Zaïnal
Concept & Development : Baudouin d'Aumeries
Co-Development & Prog : Marc-Olivier Méhu
Technical & hardware support : Manuel Goepfert

Contact : metmap@orbifly.com




SOURCES & CREDITS :

   NOAA       Earth
Advisory